Time;durP1;ratioP1;P1;durP2;ratioP2;P2;SDS_P1;SDS_P2;PMS_P1;PMS_P2;Temp;Humidity;BMP_temperature;BMP_pressure;BME280_temperature;BME280_humidity;BME280_pressure;Samples;Min_cycle;Max_cycle;Signal;HPM_P1;HPM_P2
2021/09/19 00:02:26;;;;;;;11.93;5.73;;;;;;;18.66;100.00;99736.70;1713251;82;21030;-69
2021/09/19 00:04:53;;;;;;;9.43;5.27;;;;;;;18.53;100.00;99730.52;1691522;82;21069;-69
2021/09/19 00:07:20;;;;;;;11.67;5.73;;;;;;;18.59;100.00;99731.34;1680632;82;21151;-69
2021/09/19 00:09:48;;;;;;;11.13;5.77;;;;;;;18.49;100.00;99729.42;1652000;84;21436;-71
2021/09/19 00:12:15;;;;;;;14.10;5.43;;;;;;;18.75;100.00;99737.61;1679443;82;21027;-71
2021/09/19 00:14:43;;;;;;;10.97;5.00;;;;;;;18.82;100.00;99720.52;1679900;82;21125;-71
2021/09/19 00:17:10;;;;;;;10.73;4.90;;;;;;;18.74;100.00;99719.65;1652012;84;21094;-72
2021/09/19 00:19:37;;;;;;;11.00;5.00;;;;;;;18.78;100.00;99722.59;1618890;86;21339;-71
2021/09/19 00:22:04;;;;;;;15.57;5.83;;;;;;;18.86;100.00;99718.97;1643008;87;21011;-71
2021/09/19 00:24:31;;;;;;;8.13;4.33;;;;;;;18.97;100.00;99718.53;1644101;87;21028;-70
2021/09/19 00:27:00;;;;;;;10.23;5.03;;;;;;;19.02;100.00;99723.09;1643800;87;21078;-71
2021/09/19 00:29:26;;;;;;;9.63;5.17;;;;;;;19.06;100.00;99721.53;1644005;87;21098;-71
2021/09/19 00:31:53;;;;;;;8.77;4.70;;;;;;;19.30;100.00;99724.63;1651594;84;21809;-70
2021/09/19 00:34:21;;;;;;;10.07;4.83;;;;;;;19.46;100.00;99722.34;1678592;84;21538;-69
2021/09/19 00:36:48;;;;;;;12.07;5.93;;;;;;;19.34;100.00;99723.06;1679473;85;21445;-69
2021/09/19 00:39:14;;;;;;;8.63;4.20;;;;;;;19.31;100.00;99726.20;1674301;84;21065;-70
2021/09/19 00:41:41;;;;;;;11.73;4.90;;;;;;;19.39;100.00;99721.77;1679422;84;22417;-69
2021/09/19 00:44:10;;;;;;;12.00;5.27;;;;;;;19.53;100.00;99724.25;1676251;85;21609;-71
2021/09/19 00:46:38;;;;;;;11.07;4.57;;;;;;;19.62;100.00;99708.72;1677554;84;22446;-70
2021/09/19 00:49:05;;;;;;;11.03;5.30;;;;;;;19.51;100.00;99708.36;1679184;84;21020;-71
2021/09/19 00:51:33;;;;;;;7.13;4.40;;;;;;;19.60;100.00;99706.31;1678715;85;21867;-70
2021/09/19 00:54:00;;;;;;;11.63;4.77;;;;;;;19.81;100.00;99708.59;1676486;85;21545;-70
2021/09/19 00:56:28;;;;;;;11.67;4.57;;;;;;;19.77;100.00;99712.77;1679034;84;20933;-70
2021/09/19 00:58:57;;;;;;;11.87;4.80;;;;;;;19.61;100.00;99713.19;1678820;85;20991;-70
2021/09/19 01:01:25;;;;;;;8.67;4.30;;;;;;;19.41;100.00;99724.44;1679421;85;21465;-70
2021/09/19 01:03:53;;;;;;;8.73;4.33;;;;;;;19.50;100.00;99726.59;1679107;84;20925;-70
2021/09/19 01:06:21;;;;;;;12.40;4.90;;;;;;;19.56;100.00;99715.02;1677012;84;21346;-70
2021/09/19 01:08:48;;;;;;;7.23;4.30;;;;;;;19.84;100.00;99709.37;1678966;85;21474;-69
2021/09/19 01:11:16;;;;;;;12.27;5.00;;;;;;;19.86;100.00;99707.81;1677713;84;20981;-69
2021/09/19 01:13:45;;;;;;;13.00;4.93;;;;;;;19.95;100.00;99701.49;1677671;84;21518;-70
2021/09/19 01:16:13;;;;;;;8.70;4.00;;;;;;;20.35;100.00;99706.14;1678809;84;21048;-70
2021/09/19 01:18:43;;;;;;;9.80;4.63;;;;;;;20.34;100.00;99708.00;1676877;85;21665;-71
2021/09/19 01:21:11;;;;;;;16.13;5.43;;;;;;;20.48;100.00;99705.63;1679124;84;21157;-70
2021/09/19 01:23:41;;;;;;;8.47;4.87;;;;;;;20.44;100.00;99707.21;1677612;84;20921;-70
2021/09/19 01:26:07;;;;;;;9.90;4.67;;;;;;;20.33;100.00;99710.89;1677895;84;21021;-70
2021/09/19 01:28:34;;;;;;;8.80;4.70;;;;;;;20.72;100.00;99702.52;1676310;84;21449;-70
2021/09/19 01:31:02;;;;;;;9.17;4.27;;;;;;;20.73;100.00;99709.42;1679401;85;21007;-70
2021/09/19 01:33:30;;;;;;;10.43;4.60;;;;;;;20.62;100.00;99709.41;1605682;84;21363;-71
2021/09/19 01:35:58;;;;;;;11.53;4.40;;;;;;;20.53;100.00;99707.52;1679096;85;20988;-71
2021/09/19 01:38:26;;;;;;;10.50;4.53;;;;;;;20.72;100.00;99707.81;1678689;85;21039;-71
2021/09/19 01:40:54;;;;;;;11.60;5.00;;;;;;;20.94;100.00;99716.31;1679303;84;21557;-70
2021/09/19 01:43:22;;;;;;;12.50;4.20;;;;;;;20.70;100.00;99712.59;1679241;84;21044;-71
2021/09/19 01:45:50;;;;;;;9.20;4.40;;;;;;;20.90;100.00;99713.39;1656274;85;20988;-71
2021/09/19 01:48:16;;;;;;;8.40;4.67;;;;;;;21.17;100.00;99714.98;1679245;84;21041;-70
2021/09/19 01:50:43;;;;;;;13.30;4.53;;;;;;;21.14;100.00;99711.03;1678902;84;21029;-69
2021/09/19 01:53:10;;;;;;;8.90;4.57;;;;;;;21.13;100.00;99713.39;1678378;84;21083;-69
2021/09/19 01:55:38;;;;;;;9.43;4.17;;;;;;;20.88;100.00;99712.09;1677444;84;21491;-69
2021/09/19 01:58:04;;;;;;;8.83;4.67;;;;;;;21.04;100.00;99711.56;1679025;84;21156;-69
2021/09/19 02:00:31;;;;;;;10.90;4.63;;;;;;;20.83;100.00;99713.39;1679561;84;21047;-69
2021/09/19 02:02:58;;;;;;;7.17;4.00;;;;;;;20.84;100.00;99715.00;1679123;84;20897;-70
2021/09/19 02:05:24;;;;;;;10.47;4.40;;;;;;;20.79;100.00;99713.65;1679084;84;21238;-69
2021/09/19 02:07:51;;;;;;;9.10;4.20;;;;;;;20.64;100.00;99715.22;1628924;85;21548;-71
2021/09/19 02:10:19;;;;;;;16.80;4.70;;;;;;;20.62;100.00;99712.05;1675679;83;21150;-70
2021/09/19 02:12:45;;;;;;;9.90;5.40;;;;;;;20.68;100.00;99712.05;1679505;84;21857;-70
2021/09/19 02:15:13;;;;;;;7.77;4.00;;;;;;;20.70;100.00;99715.24;1679339;84;20944;-71
2021/09/19 02:17:40;;;;;;;11.07;4.50;;;;;;;20.70;100.00;99717.89;1677584;84;21487;-70
2021/09/19 02:20:09;;;;;;;9.27;4.53;;;;;;;20.80;100.00;99718.70;1679119;85;20938;-70
2021/09/19 02:22:36;;;;;;;10.57;5.03;;;;;;;20.58;100.00;99718.92;1679405;84;21830;-69
2021/09/19 02:25:04;;;;;;;9.40;5.10;;;;;;;20.80;100.00;99720.56;1678929;84;21016;-70
2021/09/19 02:27:30;;;;;;;9.57;4.97;;;;;;;20.85;100.00;99713.40;1678406;84;21912;-69
2021/09/19 02:29:59;;;;;;;11.33;4.97;;;;;;;20.71;100.00;99716.29;1677729;84;20932;-70
2021/09/19 02:32:25;;;;;;;12.10;4.70;;;;;;;20.52;100.00;99709.38;1677106;84;21321;-70
2021/09/19 02:34:53;;;;;;;10.10;5.53;;;;;;;20.78;100.00;99702.80;1678770;84;21147;-70
2021/09/19 02:37:21;;;;;;;11.63;5.30;;;;;;;20.96;100.00;99700.95;1677070;84;21569;-71
2021/09/19 02:39:48;;;;;;;11.23;5.27;;;;;;;20.93;100.00;99704.66;1678404;84;21527;-71
2021/09/19 02:42:14;;;;;;;9.37;4.70;;;;;;;20.81;100.00;99711.55;1678447;84;21092;-69
2021/09/19 02:44:43;;;;;;;8.60;4.70;;;;;;;20.89;100.00;99703.07;1678873;84;20937;-71
2021/09/19 02:47:09;;;;;;;11.67;5.67;;;;;;;20.57;100.00;99700.13;1679191;84;21424;-72
2021/09/19 02:49:36;;;;;;;10.80;5.10;;;;;;;20.46;100.00;99699.81;1677894;84;21596;-73
2021/09/19 02:52:04;;;;;;;13.50;5.60;;;;;;;20.43;100.00;99697.69;1678643;84;22011;-73
2021/09/19 02:54:32;;;;;;;9.90;5.50;;;;;;;20.39;100.00;99697.94;1678747;84;20992;-77
2021/09/19 02:56:59;;;;;;;13.80;5.70;;;;;;;20.12;100.00;99698.13;1676449;84;20969;-77
2021/09/19 02:59:28;;;;;;;12.17;6.23;;;;;;;20.11;100.00;99695.20;1678190;85;20963;-76
2021/09/19 03:01:54;;;;;;;13.57;5.93;;;;;;;20.02;100.00;99700.73;1683364;79;21441;-75
2021/09/19 03:04:22;;;;;;;15.10;5.47;;;;;;;20.07;100.00;99698.89;1667706;84;21111;-74
2021/09/19 03:06:50;;;;;;;10.13;5.27;;;;;;;20.11;100.00;99699.95;1667450;84;21042;-74
2021/09/19 03:09:18;;;;;;;15.40;6.53;;;;;;;20.30;100.00;99702.93;1675472;83;21539;-73
2021/09/19 03:11:45;;;;;;;12.57;6.67;;;;;;;20.38;100.00;99705.59;1682323;83;21069;-73
2021/09/19 03:14:14;;;;;;;9.30;5.47;;;;;;;20.58;100.00;99705.69;1677366;83;21044;-73
2021/09/19 03:16:40;;;;;;;13.57;5.80;;;;;;;20.73;100.00;99698.83;1675631;83;21513;-74
2021/09/19 03:19:08;;;;;;;12.43;6.60;;;;;;;20.73;100.00;99700.95;1678374;83;21429;-73
2021/09/19 03:21:35;;;;;;;11.70;6.10;;;;;;;20.79;100.00;99695.90;1681643;83;21581;-73
2021/09/19 03:24:03;;;;;;;10.97;5.73;;;;;;;20.60;100.00;99695.61;1678675;83;23140;-73
2021/09/19 03:26:31;;;;;;;12.83;6.03;;;;;;;20.26;100.00;99688.63;1675521;83;21531;-72
2021/09/19 03:28:59;;;;;;;25.23;6.03;;;;;;;20.44;100.00;99688.68;1680323;83;20911;-73
2021/09/19 03:31:25;;;;;;;15.43;7.27;;;;;;;20.52;100.00;99697.99;1681344;83;21017;-73
2021/09/19 03:33:54;;;;;;;15.37;6.70;;;;;;;20.51;100.00;99694.55;1679774;83;21073;-74
2021/09/19 03:36:20;;;;;;;11.57;6.00;;;;;;;20.78;100.00;99700.94;1676695;83;21181;-74
2021/09/19 03:38:47;;;;;;;10.73;6.03;;;;;;;20.18;100.00;99696.55;1679034;83;21034;-74
2021/09/19 03:41:14;;;;;;;10.90;5.67;;;;;;;20.24;100.00;99703.98;1678200;83;21030;-72
2021/09/19 03:43:42;;;;;;;11.67;5.67;;;;;;;20.38;100.00;99706.42;1699495;82;20992;-71
2021/09/19 03:46:09;;;;;;;11.27;6.23;;;;;;;20.00;100.00;99704.97;1704804;82;21047;-72
2021/09/19 03:48:36;;;;;;;9.97;5.90;;;;;;;19.89;100.00;99705.98;1705408;82;21393;-72
2021/09/19 03:51:02;;;;;;;10.70;5.43;;;;;;;19.98;100.00;99707.59;1702311;82;21013;-71
2021/09/19 03:53:30;;;;;;;11.80;5.77;;;;;;;19.86;100.00;99707.81;1702728;82;21609;-72
2021/09/19 03:55:56;;;;;;;11.23;6.40;;;;;;;20.04;100.00;99699.42;1702470;82;21075;-73
2021/09/19 03:58:23;;;;;;;11.30;6.20;;;;;;;20.13;100.00;99698.39;1703507;82;21489;-73
2021/09/19 04:00:50;;;;;;;12.00;6.20;;;;;;;20.54;100.00;99698.53;1706169;82;21151;-72
2021/09/19 04:03:16;;;;;;;12.53;6.17;;;;;;;20.22;100.00;99702.65;1733511;82;21311;-73
2021/09/19 04:05:44;;;;;;;11.70;6.87;;;;;;;20.54;100.00;99703.30;1733832;82;20983;-74
2021/09/19 04:08:11;;;;;;;14.40;6.30;;;;;;;20.87;100.00;99699.88;1733383;82;21044;-73
2021/09/19 04:10:39;;;;;;;17.63;7.33;;;;;;;21.06;100.00;99705.45;1730934;82;21068;-73
2021/09/19 04:13:07;;;;;;;11.80;6.33;;;;;;;20.88;100.00;99702.28;1733988;82;20907;-73
2021/09/19 04:15:34;;;;;;;12.57;6.43;;;;;;;21.08;100.00;99702.02;1733882;82;21055;-73
2021/09/19 04:18:02;;;;;;;12.57;6.53;;;;;;;21.11;100.00;99703.60;1729788;82;21016;-72
2021/09/19 04:20:30;;;;;;;12.53;6.60;;;;;;;21.04;100.00;99701.75;1732625;82;21164;-73
2021/09/19 04:22:59;;;;;;;12.10;6.23;;;;;;;21.00;100.00;99698.58;1727607;82;20900;-74
2021/09/19 04:25:26;;;;;;;13.20;7.07;;;;;;;20.93;100.00;99697.51;1728777;82;21152;-74
2021/09/19 04:27:54;;;;;;;14.83;6.97;;;;;;;20.76;100.00;99711.52;1732493;82;21060;-75
2021/09/19 04:30:21;;;;;;;14.33;7.83;;;;;;;20.88;100.00;99698.84;1730186;82;21021;-74
2021/09/19 04:32:47;;;;;;;16.83;8.57;;;;;;;21.01;100.00;99704.13;1734294;82;22035;-74
2021/09/19 04:35:14;;;;;;;13.93;7.83;;;;;;;20.92;100.00;99705.73;1730692;82;21065;-74
2021/09/19 04:37:42;;;;;;;15.20;7.60;;;;;;;20.93;100.00;99700.69;1733987;82;20906;-72
2021/09/19 04:40:10;;;;;;;12.23;6.70;;;;;;;20.82;100.00;99707.83;1729360;82;21069;-73
2021/09/19 04:42:36;;;;;;;14.27;6.10;;;;;;;20.68;100.00;99708.86;1731844;82;21072;-73
2021/09/19 04:45:06;;;;;;;12.07;6.23;;;;;;;20.78;100.00;99704.91;1733290;82;21143;-73
2021/09/19 04:47:34;;;;;;;11.90;5.40;;;;;;;20.87;100.00;99706.50;1729521;82;21014;-73
2021/09/19 04:50:01;;;;;;;11.87;6.47;;;;;;;20.98;100.00;99704.12;1689075;83;21123;-73
2021/09/19 04:52:27;;;;;;;14.17;6.23;;;;;;;20.90;100.00;99702.00;1685818;84;20971;-73
2021/09/19 04:54:54;;;;;;;12.50;6.27;;;;;;;21.23;100.00;99696.70;1689520;83;21432;-73
2021/09/19 04:57:22;;;;;;;18.57;10.13;;;;;;;21.28;100.00;99690.59;1688775;83;21035;-74
2021/09/19 04:59:50;;;;;;;18.97;13.73;;;;;;;20.91;100.00;99689.05;1688051;84;21121;-72
2021/09/19 05:02:16;;;;;;;25.13;14.67;;;;;;;20.66;100.00;99693.78;1684365;84;21135;-74
2021/09/19 05:04:44;;;;;;;22.00;11.67;;;;;;;21.00;100.00;99695.39;1686671;84;21376;-74
2021/09/19 05:07:10;;;;;;;16.77;8.53;;;;;;;21.13;100.00;99687.42;1687803;84;21016;-74
2021/09/19 05:09:37;;;;;;;13.43;7.43;;;;;;;21.13;100.00;99688.75;1693314;83;20958;-73
2021/09/19 05:12:05;;;;;;;14.67;6.57;;;;;;;20.70;100.00;99690.88;1685618;84;21019;-73
2021/09/19 05:14:32;;;;;;;14.80;6.73;;;;;;;20.94;100.00;99688.48;1686642;83;22233;-75
2021/09/19 05:17:01;;;;;;;13.03;6.33;;;;;;;21.20;100.00;99687.16;1686043;83;21257;-74
2021/09/19 05:19:29;;;;;;;13.87;5.80;;;;;;;21.38;100.00;99687.97;1687529;83;21378;-73
2021/09/19 05:21:57;;;;;;;11.53;7.07;;;;;;;21.27;100.00;99683.70;1686363;84;21020;-74
2021/09/19 05:24:25;;;;;;;14.50;6.10;;;;;;;21.18;100.00;99681.34;1686140;84;21039;-74
2021/09/19 05:26:53;;;;;;;10.23;5.47;;;;;;;21.44;100.00;99684.75;1686760;84;21366;-74
2021/09/19 05:29:21;;;;;;;13.47;6.00;;;;;;;21.42;100.00;99681.59;1685850;84;21552;-73
2021/09/19 05:31:49;;;;;;;10.40;6.80;;;;;;;21.50;100.00;99681.83;1687018;83;21036;-72
2021/09/19 05:34:16;;;;;;;12.47;6.30;;;;;;;21.13;100.00;99681.59;1687246;83;21090;-73
2021/09/19 05:36:42;;;;;;;17.77;6.37;;;;;;;20.94;100.00;99680.55;1686186;83;22489;-73
2021/09/19 05:39:09;;;;;;;12.17;6.13;;;;;;;21.04;100.00;99672.59;1679674;83;21149;-71
2021/09/19 05:41:37;;;;;;;13.87;6.23;;;;;;;21.01;100.00;99671.80;1686626;84;20956;-72
2021/09/19 05:44:04;;;;;;;13.30;6.67;;;;;;;20.80;100.00;99671.55;1686817;84;21103;-73
2021/09/19 05:46:30;;;;;;;13.93;6.90;;;;;;;20.92;100.00;99668.11;1688120;83;21476;-74
2021/09/19 05:48:59;;;;;;;10.77;6.27;;;;;;;20.99;100.00;99673.94;1687776;83;21055;-71
2021/09/19 05:51:27;;;;;;;9.70;5.97;;;;;;;21.14;100.00;99669.95;1685597;83;22013;-71
2021/09/19 05:53:53;;;;;;;12.87;6.73;;;;;;;21.17;100.00;99669.13;1688812;83;20952;-72
2021/09/19 05:56:20;;;;;;;17.67;7.80;;;;;;;21.07;100.00;99668.09;1684116;84;21022;-72
2021/09/19 05:58:48;;;;;;;14.33;7.40;;;;;;;21.16;100.00;99668.34;1686183;83;21216;-71
2021/09/19 06:01:17;;;;;;;13.97;6.07;;;;;;;21.28;100.00;99668.06;1687834;83;20942;-73
2021/09/19 06:03:43;;;;;;;17.10;6.40;;;;;;;21.82;100.00;99668.73;1683401;84;21123;-71
2021/09/19 06:06:12;;;;;;;11.63;6.23;;;;;;;21.98;100.00;99663.63;1681300;84;20964;-72
2021/09/19 06:08:38;;;;;;;10.60;6.23;;;;;;;22.01;100.00;99664.42;1693196;84;21102;-70
2021/09/19 06:11:05;;;;;;;11.53;6.10;;;;;;;21.85;100.00;99668.19;1685024;84;21513;-70
2021/09/19 06:13:33;;;;;;;12.40;6.53;;;;;;;21.94;100.00;99671.88;1681938;84;21043;-71
2021/09/19 06:15:59;;;;;;;14.00;6.77;;;;;;;22.30;100.00;99663.21;1686040;83;21174;-71
2021/09/19 06:18:28;;;;;;;14.73;7.27;;;;;;;22.64;100.00;99662.46;1681928;84;20952;-70
2021/09/19 06:20:56;;;;;;;13.47;7.40;;;;;;;22.60;100.00;99664.09;1684934;84;21084;-71
2021/09/19 06:23:23;;;;;;;10.67;6.60;;;;;;;22.61;100.00;99662.22;1684242;83;21042;-71
2021/09/19 06:25:49;;;;;;;13.53;7.50;;;;;;;22.72;100.00;99661.86;1684520;84;21131;-71
2021/09/19 06:28:16;;;;;;;11.30;6.13;;;;;;;22.93;100.00;99651.11;1683783;84;21647;-67
2021/09/19 06:30:42;;;;;;;11.37;6.67;;;;;;;22.71;100.00;99651.52;1684564;83;21116;-65
2021/09/19 06:33:10;;;;;;;16.43;7.20;;;;;;;22.79;100.00;99646.94;1684397;84;21102;-66
2021/09/19 06:35:41;;;;;;;15.27;6.90;;;;;;;22.76;100.00;99646.95;1680686;83;21028;-66
2021/09/19 06:38:08;;;;;;;13.20;7.00;;;;;;;22.69;100.00;99652.32;1685073;83;21025;-72
2021/09/19 06:40:38;;;;;;;12.40;6.43;;;;;;;22.57;100.00;99644.17;1682649;83;21117;-66
2021/09/19 06:43:04;;;;;;;13.87;6.87;;;;;;;22.47;100.00;99638.17;1683967;83;21154;-66
2021/09/19 06:45:31;;;;;;;12.53;7.37;;;;;;;22.11;100.00;99636.48;1683453;83;21576;-64
2021/09/19 06:47:57;;;;;;;15.17;7.73;;;;;;;22.16;100.00;99631.73;1684186;84;21024;-67
2021/09/19 06:50:24;;;;;;;14.23;8.37;;;;;;;22.23;100.00;99630.07;1675954;83;21625;-64
2021/09/19 06:52:51;;;;;;;13.43;7.30;;;;;;;22.38;100.00;99638.48;1684515;84;21175;-64
2021/09/19 06:55:18;;;;;;;15.30;8.93;;;;;;;22.40;100.00;99637.68;1683985;83;21003;-67
2021/09/19 06:57:46;;;;;;;13.57;8.30;;;;;;;23.01;100.00;99634.55;1681898;83;21022;-65
2021/09/19 07:00:16;;;;;;;15.23;8.87;;;;;;;22.94;100.00;99637.53;1658198;84;21023;-66
2021/09/19 07:02:42;;;;;;;12.63;8.00;;;;;;;23.04;100.00;99639.31;1682410;83;21113;-65
2021/09/19 07:05:10;;;;;;;15.37;8.13;;;;;;;22.04;100.00;99646.60;1684758;83;21130;-66
2021/09/19 07:07:37;;;;;;;13.40;7.70;;;;;;;22.41;100.00;99636.60;1683389;84;21104;-65
2021/09/19 07:10:05;;;;;;;16.10;7.67;;;;;;;22.47;100.00;99638.95;1682617;84;20968;-75
2021/09/19 07:12:32;;;;;;;13.83;7.47;;;;;;;22.52;100.00;99640.23;1675258;84;21081;-76
2021/09/19 07:15:00;;;;;;;11.47;7.23;;;;;;;22.39;100.00;99644.86;1682288;84;21026;-64
2021/09/19 07:17:26;;;;;;;11.10;7.47;;;;;;;22.34;100.00;99644.88;1683596;83;21243;-66
2021/09/19 07:19:54;;;;;;;9.53;6.70;;;;;;;21.93;100.00;99642.41;1684466;83;21087;-66
2021/09/19 07:22:22;;;;;;;11.73;7.03;;;;;;;21.76;100.00;99639.32;1683824;83;20940;-74
2021/09/19 07:24:48;;;;;;;13.93;7.10;;;;;;;21.77;100.00;99638.25;1684317;84;21095;-66
2021/09/19 07:27:15;;;;;;;12.07;7.83;;;;;;;21.80;100.00;99636.38;1684064;84;21000;-67
2021/09/19 07:29:43;;;;;;;13.43;8.17;;;;;;;22.26;100.00;99637.49;1681732;84;21167;-67
2021/09/19 07:32:12;;;;;;;11.93;6.93;;;;;;;22.40;100.00;99627.84;1683776;84;20960;-68
2021/09/19 07:34:40;;;;;;;14.07;6.60;;;;;;;22.46;100.00;99629.38;1683688;84;21070;-67
2021/09/19 07:37:08;;;;;;;11.57;7.93;;;;;;;22.81;100.00;99631.52;1686302;83;21115;-71
2021/09/19 07:39:35;;;;;;;13.33;7.63;;;;;;;22.68;100.00;99628.95;1682992;83;21008;-71
2021/09/19 07:42:02;;;;;;;12.43;7.47;;;;;;;22.54;100.00;99631.47;1684435;85;21182;-76
2021/09/19 07:44:30;;;;;;;13.43;7.30;;;;;;;22.99;100.00;99622.07;1678787;84;20936;-72
2021/09/19 07:46:58;;;;;;;11.17;6.60;;;;;;;22.89;100.00;99615.51;1682642;83;20972;-67
2021/09/19 07:49:28;;;;;;;12.53;7.20;;;;;;;22.94;100.00;99609.63;1683925;84;21038;-67
2021/09/19 07:51:56;;;;;;;12.83;6.70;;;;;;;23.10;100.00;99605.48;1683557;84;21498;-69
2021/09/19 07:54:26;;;;;;;10.47;5.90;;;;;;;22.50;100.00;99603.88;1682157;83;21174;-68
2021/09/19 07:56:53;;;;;;;9.57;5.30;;;;;;;22.54;100.00;99603.58;1683261;83;21687;-71
2021/09/19 07:59:20;;;;;;;9.47;5.30;;;;;;;23.23;100.00;99604.29;1683190;83;21120;-70
2021/09/19 08:01:47;;;;;;;8.80;5.00;;;;;;;23.20;100.00;99596.08;1682761;85;21142;-70
2021/09/19 08:04:13;;;;;;;7.97;4.67;;;;;;;23.36;100.00;99586.84;1682466;84;21079;-71
2021/09/19 08:06:42;;;;;;;11.57;5.73;;;;;;;23.73;100.00;99584.83;1681534;84;21150;-69
2021/09/19 08:09:10;;;;;;;9.28;5.28;;;;;;;23.75;100.00;99575.22;1681404;84;21044;-68
2021/09/19 08:11:36;;;;;;;7.07;4.80;;;;;;;24.20;100.00;99572.98;1698152;82;22355;-69
2021/09/19 08:14:06;;;;;;;7.73;5.30;;;;;;;24.46;100.00;99568.86;1679176;83;21166;-70
2021/09/19 08:16:35;;;;;;;8.88;4.83;;;;;;;24.26;100.00;99567.84;1683907;83;21058;-69
2021/09/19 08:19:05;;;;;;;7.80;4.90;;;;;;;24.00;100.00;99568.22;1684731;83;21039;-73
2021/09/19 08:21:31;;;;;;;9.10;4.90;;;;;;;23.33;100.00;99568.80;1684500;84;21038;-68
2021/09/19 08:23:59;;;;;;;8.67;4.90;;;;;;;23.40;100.00;99561.27;1685057;84;21084;-70
2021/09/19 08:26:25;;;;;;;11.53;5.77;;;;;;;23.02;100.00;99558.50;1683405;83;21081;-71
2021/09/19 08:28:53;;;;;;;12.50;6.13;;;;;;;22.78;100.00;99563.78;1684186;84;20993;-68
2021/09/19 08:31:19;;;;;;;11.37;6.20;;;;;;;22.68;100.00;99567.06;1683734;84;21227;-68
2021/09/19 08:33:46;;;;;;;12.13;6.00;;;;;;;22.61;100.00;99563.93;1683284;84;21105;-69
2021/09/19 08:36:13;;;;;;;10.30;5.83;;;;;;;22.76;100.00;99566.45;1684263;85;20996;-75
2021/09/19 08:38:39;;;;;;;12.20;6.80;;;;;;;22.61;100.00;99567.37;1662856;84;21104;-69
2021/09/19 08:41:06;;;;;;;11.97;7.70;;;;;;;22.73;100.00;99567.82;1685257;83;21431;-68
2021/09/19 08:43:34;;;;;;;16.33;8.90;;;;;;;22.62;100.00;99566.87;1683191;83;21581;-66
2021/09/19 08:46:01;;;;;;;16.43;8.97;;;;;;;22.23;100.00;99566.36;1684639;83;20955;-66
2021/09/19 08:48:28;;;;;;;14.27;8.23;;;;;;;21.90;100.00;99566.03;1684098;84;20999;-65
2021/09/19 08:50:57;;;;;;;16.27;8.33;;;;;;;21.82;100.00;99565.25;1682526;83;20883;-74
2021/09/19 08:53:31;;;;;;;14.70;7.83;;;;;;;21.51;100.00;99569.38;1661439;84;20956;-64
2021/09/19 08:56:00;;;;;;;12.77;7.40;;;;;;;21.24;100.00;99572.91;1664012;84;21224;-73
2021/09/19 08:58:30;;;;;;;12.77;7.73;;;;;;;21.29;100.00;99578.19;1665646;84;21439;-62
2021/09/19 09:01:01;;;;;;;15.15;8.25;;;;;;;21.16;100.00;99582.20;1664338;84;21094;-71
2021/09/19 09:03:30;;;;;;;11.50;6.78;;;;;;;21.13;100.00;99584.85;1663449;84;21544;-65
2021/09/19 09:06:04;;;;;;;11.07;6.63;;;;;;;20.98;100.00;99585.42;1669558;84;21506;-64
2021/09/19 09:08:33;;;;;;;16.93;8.10;;;;;;;20.86;100.00;99587.03;1668932;84;21015;-71
2021/09/19 09:11:05;;;;;;;12.50;6.97;;;;;;;20.78;100.00;99598.17;1669771;84;21538;-66
2021/09/19 09:13:36;;;;;;;12.33;7.53;;;;;;;20.56;100.00;99601.88;1670147;84;21038;-71
2021/09/19 09:16:14;;;;;;;11.00;6.80;;;;;;;20.54;100.00;99596.59;1671021;84;22403;-64
2021/09/19 09:18:45;;;;;;;14.27;8.13;;;;;;;20.34;100.00;99605.27;1668035;84;21043;-70
2021/09/19 09:21:28;;;;;;;11.90;6.95;;;;;;;20.97;100.00;99612.45;1685101;82;21198;-70
2021/09/19 09:23:57;;;;;;;16.27;7.40;;;;;;;20.95;100.00;99610.62;1687079;83;20956;-65
2021/09/19 09:26:26;;;;;;;14.10;7.97;;;;;;;20.98;100.00;99602.11;1687807;83;21057;-70
2021/09/19 09:29:09;;;;;;;10.90;7.40;;;;;;;20.97;100.00;99593.91;1687013;83;21127;-70
2021/09/19 09:31:40;;;;;;;10.07;7.17;;;;;;;20.83;100.00;99598.95;1686810;83;21047;-67
2021/09/19 09:34:19;;;;;;;10.20;6.62;;;;;;;21.08;100.00;99598.66;1685752;83;21163;-67
2021/09/19 09:36:53;;;;;;;12.65;7.55;;;;;;;21.45;100.00;99604.95;1686187;83;21431;-67
2021/09/19 09:39:41;;;;;;;14.67;7.70;;;;;;;21.46;100.00;99601.77;1687100;83;21683;-67
2021/09/19 09:42:19;;;;;;;14.53;7.80;;;;;;;21.15;100.00;99599.18;1687516;83;21815;-66
2021/09/19 09:44:52;;;;;;;10.97;7.03;;;;;;;21.16;100.00;99611.36;1686853;83;21332;-66
2021/09/19 09:47:28;;;;;;;11.47;7.40;;;;;;;21.09;100.00;99616.94;1684969;83;21439;-65
2021/09/19 09:49:58;;;;;;;14.27;8.20;;;;;;;20.81;100.00;99617.52;1686227;83;21556;-66
2021/09/19 09:52:36;;;;;;;11.67;7.90;;;;;;;20.85;100.00;99615.92;1686735;83;21034;-64
2021/09/19 09:55:09;;;;;;;10.10;7.43;;;;;;;20.67;100.00;99620.42;1686700;83;21017;-64
2021/09/19 09:57:56;;;;;;;10.70;8.00;;;;;;;20.23;100.00;99631.45;1686076;83;21063;-64
2021/09/19 10:00:23;;;;;;;13.57;7.70;;;;;;;20.46;100.00;99624.90;1696918;84;21049;-63
2021/09/19 10:02:50;;;;;;;12.10;7.97;;;;;;;20.14;100.00;99624.56;1697885;83;21662;-62
2021/09/19 10:05:19;;;;;;;12.27;7.80;;;;;;;20.22;100.00;99625.90;1695412;83;21063;-70
2021/09/19 10:07:48;;;;;;;12.25;7.92;;;;;;;20.24;100.00;99619.83;1695330;83;21035;-62
2021/09/19 10:10:17;;;;;;;11.93;8.50;;;;;;;20.34;100.00;99621.15;1695699;83;21491;-71
2021/09/19 10:12:46;;;;;;;15.73;8.70;;;;;;;20.83;100.00;99619.34;1695457;83;21151;-67
2021/09/19 10:15:15;;;;;;;13.97;8.57;;;;;;;20.82;100.00;99614.58;1693421;83;20939;-69
2021/09/19 10:17:43;;;;;;;18.00;10.33;;;;;;;20.84;100.00;99613.02;1693921;83;21084;-61
2021/09/19 10:20:28;;;;;;;11.20;8.63;;;;;;;20.84;100.00;99619.63;1695277;82;21014;-65
2021/09/19 10:23:28;;;;;;;14.20;8.57;;;;;;;20.98;100.00;99621.98;1669737;84;20929;-61
2021/09/19 10:26:00;;;;;;;11.73;8.27;;;;;;;21.00;100.00;99617.22;1687654;83;21043;-63
2021/09/19 10:28:39;;;;;;;11.43;8.53;;;;;;;21.20;100.00;99605.00;1688291;83;21000;-67
2021/09/19 10:31:15;;;;;;;14.40;9.03;;;;;;;21.38;100.00;99605.23;1686203;83;21145;-70
2021/09/19 10:33:59;;;;;;;13.23;9.17;;;;;;;21.06;100.00;99610.05;1686692;83;21062;-64
2021/09/19 10:36:45;;;;;;;13.43;8.60;;;;;;;20.86;100.00;99615.64;1685771;83;21160;-62
2021/09/19 10:39:26;;;;;;;15.23;9.27;;;;;;;20.69;100.00;99609.84;1654015;84;22393;-61
2021/09/19 10:42:31;;;;;;;11.30;8.50;;;;;;;20.64;100.00;99615.11;1685949;83;21017;-64
2021/09/19 10:45:04;;;;;;;12.03;8.97;;;;;;;21.25;100.00;99608.95;1689612;83;21130;-61
2021/09/19 10:47:38;;;;;;;13.47;10.20;;;;;;;21.30;100.00;99613.72;1691504;83;21073;-60
2021/09/19 10:50:28;;;;;;;14.10;10.50;;;;;;;21.46;100.00;99610.52;1683725;83;20909;-63
2021/09/19 10:52:54;;;;;;;12.70;9.43;;;;;;;20.73;100.00;99610.89;1682392;83;21197;-66
2021/09/19 10:55:27;;;;;;;12.37;9.57;;;;;;;20.98;100.00;99611.38;1683519;84;22206;-62
2021/09/19 10:58:06;;;;;;;14.30;12.23;;;;;;;21.29;100.00;99608.16;1683498;83;21051;-61
2021/09/19 11:00:34;;;;;;;15.40;12.40;;;;;;;21.21;100.00;99608.69;1682036;83;22252;-69
2021/09/19 11:03:27;;;;;;;16.67;13.80;;;;;;;21.35;100.00;99603.66;1687598;83;20952;-66
2021/09/19 11:05:54;;;;;;;17.10;13.67;;;;;;;21.61;100.00;99601.17;1688483;83;21526;-63
2021/09/19 11:08:26;;;;;;;18.57;13.67;;;;;;;21.93;100.00;99597.30;1694073;83;20995;-63
2021/09/19 11:11:02;;;;;;;15.77;13.33;;;;;;;22.13;100.00;99600.39;1692726;82;21028;-62
2021/09/19 11:13:42;;;;;;;16.43;12.90;;;;;;;22.32;100.00;99605.88;1690853;83;21070;-62
2021/09/19 11:16:26;;;;;;;15.70;14.07;;;;;;;22.35;100.00;99606.65;1691415;83;21522;-65
2021/09/19 11:18:59;;;;;;;14.93;13.27;;;;;;;22.24;100.00;99609.12;1669325;83;21270;-63
2021/09/19 11:21:30;;;;;;;16.17;13.63;;;;;;;22.43;100.00;99598.63;1665188;84;21407;-64
2021/09/19 11:24:12;;;;;;;17.00;14.57;;;;;;;22.41;100.00;99592.79;1675214;83;20962;-69
2021/09/19 11:26:44;;;;;;;15.10;13.23;;;;;;;22.31;100.00;99596.30;1673798;83;21123;-64